Aérodrome :
LOGIN :

S'inscrire | Disclaimer

   EN    FR    IT 

 










Légende :    VFR   VFR Marginal   IFR   IFR Intensif   IFR Très Intensif
Visi : 
Plafond : 
>= 8 km
>= 3000ft
5 à 8 km
1000 à 3000 ft
1500m à 5 km
500 à 1000 ft
800 à 1500m
200 à 500 ft
< 800m
< 200 ft
Symboles :   Orages  Brouillard  Fortes neiges  Fortes précipitations  Vent > 20 kt
SIGMETs :   Divers  Orages  Givrage  Turbulence  Onde Orograph.  Cendres Volcan.







- Altitude de l'aérodrome : 1300 ft
- Code IATA : LIG
- Voir les cartes d'approche


LFBL - Limoges

DERNIER METAR :
  • 230930Z AUTO 20006KT 9999 -RA OVC006 03/02 Q1008 TEMPO 4000 SHRA SCT015TCU BKN020

METARs EXPIRÉS :
  • 230900Z AUTO 20003KT 170V230 9999 -RA OVC005 03/02 Q1007 TEMPO 2000 RA BECMG BKN010
  • 230830Z AUTO 19004KT 160V220 9999 -RA OVC005 02/02 Q1008 TEMPO 2000 RA BECMG BKN010
  • 230800Z AUTO 17005KT 140V200 9999 RA BKN006 OVC010 03/02 Q1008 TEMPO 2000 RA BKN002
  • 230730Z AUTO 18004KT 160V220 9999 RA BKN008 OVC019 03/02 Q1007 TEMPO 2000 RA BKN002
  • 230700Z AUTO VRB03KT 9999 -RA SCT010 OVC021 03/02 Q1007 TEMPO 2000 RA BKN002

TAF AMD TAF LFBL
Valide du 23 à 10h jusqu'au 24 à 06h UTC


231002Z 2310/2406 20005KT 9999 BKN010
TEMPO 2310/2312 2000 RA BKN002
BECMG 2312/2314 BKN020 BKN060
TEMPO 2312/2318 4000 SHRA SCT015TCU BKN020
BECMG 2318/2320 07006KT CAVOK
ATIS : +33 5 55 48 40 37
Pas de NOTAMs connus pour ce terrain.



MET'MAP, la Météo Aéronautique d'un coup d'oeil ! - Copyright ORBIFLY Décembre 2007 - Disclaimer

ORBIFLY MET'MAP TEAM :

Programmation & Développement : Alexandra Zaïnal
Conception & Développement : Baudouin d'Aumeries
Co-Programmation & Développement : Marc-Olivier Méhu
Soutien technique & logistique : Manuel Goepfert

Contact : metmap@orbifly.com




SOURCES & CREDITS :

   NOAA